createdAt,value
2019-06-20T00:01:49.920Z,8.23
2019-06-20T00:04:53.650Z,6.53
2019-06-20T00:07:57.894Z,9.37
2019-06-20T00:11:01.587Z,9.30
2019-06-20T00:14:05.707Z,7.47
2019-06-20T00:17:09.411Z,6.80
2019-06-20T00:20:13.373Z,9.03
2019-06-20T00:23:17.045Z,7.67
2019-06-20T00:26:20.983Z,9.20
2019-06-20T00:29:24.744Z,7.93
2019-06-20T00:32:28.446Z,5.30
2019-06-20T00:35:32.152Z,7.40
2019-06-20T00:38:36.167Z,11.10
2019-06-20T00:41:40.263Z,7.30
2019-06-20T00:44:43.971Z,9.60
2019-06-20T00:47:47.952Z,12.93
2019-06-20T00:50:51.685Z,14.90
2019-06-20T00:53:55.665Z,8.47
2019-06-20T00:56:59.415Z,6.67
2019-06-20T01:00:03.162Z,13.60
2019-06-20T01:03:06.932Z,11.63
2019-06-20T01:06:10.965Z,10.43
2019-06-20T01:09:14.985Z,8.63
2019-06-20T01:12:18.694Z,11.63
2019-06-20T01:15:22.896Z,9.03
2019-06-20T01:18:26.602Z,15.20
2019-06-20T01:21:30.389Z,11.50
2019-06-20T01:24:34.077Z,9.80
2019-06-20T01:27:38.449Z,7.77
2019-06-20T01:30:42.595Z,11.13
2019-06-20T01:33:46.284Z,8.57
2019-06-20T01:36:49.991Z,9.67
2019-06-20T01:39:53.687Z,12.23
2019-06-20T01:42:57.400Z,7.80
2019-06-20T01:46:01.122Z,7.13
2019-06-20T01:49:04.814Z,7.10
2019-06-20T01:52:08.742Z,9.10
2019-06-20T01:55:12.922Z,9.70
2019-06-20T01:58:16.860Z,8.70
2019-06-20T02:01:20.628Z,10.87
2019-06-20T02:04:24.561Z,7.10
2019-06-20T02:07:28.470Z,11.50
2019-06-20T02:10:32.483Z,9.87
2019-06-20T02:13:36.440Z,10.20
2019-06-20T02:16:40.228Z,8.73
2019-06-20T02:19:44.080Z,12.10
2019-06-20T02:22:47.783Z,10.23
2019-06-20T02:25:52.065Z,6.33
2019-06-20T02:28:55.831Z,9.30
2019-06-20T02:31:59.549Z,10.27
2019-06-20T02:35:03.249Z,7.93
2019-06-20T02:38:07.103Z,10.23
2019-06-20T02:41:10.860Z,10.03
2019-06-20T02:44:29.362Z,6.97
2019-06-20T02:47:19.988Z,10.13
2019-06-20T02:50:23.944Z,10.60
2019-06-20T02:53:27.706Z,8.07
2019-06-20T02:56:31.480Z,10.80
2019-06-20T02:59:35.554Z,11.13
2019-06-20T03:02:39.532Z,13.43
2019-06-20T03:05:58.659Z,10.17
2019-06-20T03:09:02.373Z,9.60
2019-06-20T03:12:06.071Z,10.63
2019-06-20T03:15:09.866Z,12.03
2019-06-20T03:18:13.566Z,13.40
2019-06-20T03:21:17.329Z,8.77
2019-06-20T03:24:21.292Z,9.40
2019-06-20T03:27:24.991Z,6.33
2019-06-20T03:30:28.934Z,9.60
2019-06-20T03:33:32.687Z,12.97
2019-06-20T03:36:36.382Z,12.27
2019-06-20T03:39:40.080Z,7.43
2019-06-20T03:42:43.849Z,8.83
2019-06-20T03:45:47.986Z,7.60
2019-06-20T03:48:52.436Z,9.33
2019-06-20T03:51:56.211Z,8.47
2019-06-20T03:54:59.920Z,7.73
2019-06-20T03:58:04.264Z,9.10
2019-06-20T04:01:08.235Z,9.13
2019-06-20T04:04:12.369Z,14.50
2019-06-20T04:07:16.140Z,11.23
2019-06-20T04:10:19.918Z,11.23
2019-06-20T04:13:23.972Z,8.23
2019-06-20T04:16:27.748Z,9.50
2019-06-20T04:19:31.437Z,7.97
2019-06-20T04:22:35.881Z,9.33
2019-06-20T04:25:39.573Z,6.97
2019-06-20T04:28:43.262Z,8.20
2019-06-20T04:31:46.961Z,6.70
2019-06-20T04:34:50.769Z,7.77
2019-06-20T04:37:54.461Z,7.47
2019-06-20T04:40:58.154Z,8.47
2019-06-20T04:44:01.905Z,8.57
2019-06-20T04:47:10.098Z,9.83
2019-06-20T04:50:13.890Z,8.53
2019-06-20T04:53:17.719Z,15.23
2019-06-20T04:56:21.736Z,15.27
2019-06-20T04:59:25.906Z,10.80
2019-06-20T05:02:36.109Z,13.83
2019-06-20T05:05:39.839Z,12.90
2019-06-20T05:08:43.863Z,10.60
2019-06-20T05:11:47.620Z,12.43
2019-06-20T05:14:51.322Z,9.90
2019-06-20T05:17:55.037Z,11.93
2019-06-20T05:20:58.727Z,13.97
2019-06-20T05:24:02.428Z,9.53
2019-06-20T05:27:06.139Z,12.90
2019-06-20T05:30:11.241Z,12.97
2019-06-20T05:33:14.946Z,15.03
2019-06-20T05:36:18.921Z,13.33
2019-06-20T05:39:22.927Z,13.27
2019-06-20T05:42:26.643Z,17.33
2019-06-20T05:45:31.149Z,22.17
2019-06-20T05:48:35.165Z,16.40
2019-06-20T05:51:39.803Z,19.10
2019-06-20T05:54:44.222Z,20.63
2019-06-20T05:57:47.986Z,18.20
2019-06-20T06:00:51.683Z,16.03
2019-06-20T06:03:55.387Z,21.23
2019-06-20T06:06:59.375Z,21.43
2019-06-20T06:10:04.473Z,23.27
2019-06-20T06:13:08.806Z,19.93
2019-06-20T06:16:25.652Z,19.73
2019-06-20T06:19:18.603Z,21.00
2019-06-20T06:22:22.379Z,21.23
2019-06-20T06:25:26.668Z,15.53
2019-06-20T06:28:30.358Z,21.97
2019-06-20T06:31:34.058Z,19.70
2019-06-20T06:34:38.062Z,19.37
2019-06-20T06:37:41.792Z,17.10
2019-06-20T06:40:45.593Z,15.43
2019-06-20T06:43:49.379Z,14.80
2019-06-20T06:46:57.516Z,20.17
2019-06-20T06:49:58.742Z,16.77
2019-06-20T06:53:02.446Z,17.37
2019-06-20T06:56:06.241Z,21.73
2019-06-20T06:59:09.969Z,20.37
2019-06-20T07:02:14.352Z,24.77
2019-06-20T07:05:18.716Z,23.23
2019-06-20T07:08:22.445Z,21.13
2019-06-20T07:11:26.188Z,22.53
2019-06-20T07:14:29.897Z,24.77
2019-06-20T07:17:33.621Z,27.07
2019-06-20T07:20:37.678Z,28.40
2019-06-20T07:23:41.406Z,25.80
2019-06-20T07:26:45.414Z,28.93
2019-06-20T07:29:49.170Z,39.60
2019-06-20T07:32:52.964Z,39.77
2019-06-20T07:35:56.792Z,43.87
2019-06-20T07:39:01.146Z,50.97
2019-06-20T07:42:04.921Z,52.07
2019-06-20T07:45:09.808Z,47.97
2019-06-20T07:48:13.499Z,43.33
2019-06-20T07:51:17.208Z,49.70
2019-06-20T07:54:20.957Z,46.33
2019-06-20T07:57:25.160Z,43.40
2019-06-20T08:00:29.127Z,51.03
2019-06-20T08:03:32.827Z,45.07
2019-06-20T08:06:36.545Z,44.20
2019-06-20T08:09:44.864Z,49.43
2019-06-20T08:12:45.930Z,44.17
2019-06-20T08:15:49.983Z,45.57
2019-06-20T08:18:54.330Z,42.10
2019-06-20T08:21:58.367Z,40.97
2019-06-20T08:25:03.231Z,37.27
2019-06-20T08:28:07.206Z,36.40
2019-06-20T08:31:11.331Z,28.80
2019-06-20T08:34:15.385Z,32.70
2019-06-20T08:37:19.101Z,33.87
2019-06-20T08:40:25.708Z,27.67
2019-06-20T08:43:29.435Z,30.77
2019-06-20T08:46:33.139Z,30.87
2019-06-20T08:49:37.124Z,32.10
2019-06-20T08:52:41.132Z,26.00
2019-06-20T08:55:45.084Z,29.70
2019-06-20T08:58:48.786Z,25.10
2019-06-20T09:01:55.992Z,26.17
2019-06-20T09:04:58.273Z,27.43
2019-06-20T09:11:06.521Z,27.87
2019-06-20T09:14:10.522Z,29.37
2019-06-20T09:17:14.200Z,29.17
2019-06-20T09:20:19.678Z,31.20
2019-06-20T09:23:23.405Z,27.60
2019-06-20T09:26:27.124Z,30.70
2019-06-20T09:29:41.395Z,34.37
2019-06-20T09:32:37.055Z,30.33
2019-06-20T09:35:40.761Z,34.27
2019-06-20T09:38:44.731Z,28.57
2019-06-20T09:41:48.420Z,33.17
2019-06-20T09:44:52.637Z,34.47
2019-06-20T09:47:56.403Z,35.97
2019-06-20T09:51:00.353Z,30.27
2019-06-20T09:54:04.123Z,31.03
2019-06-20T09:57:08.068Z,26.07
2019-06-20T10:00:11.269Z,31.00
2019-06-20T10:03:15.442Z,29.03
2019-06-20T10:06:19.143Z,28.77
2019-06-20T10:09:22.851Z,29.57
2019-06-20T10:12:26.961Z,33.90
2019-06-20T10:15:33.300Z,31.07
2019-06-20T10:18:37.064Z,37.87
2019-06-20T10:21:40.872Z,27.73
2019-06-20T10:24:45.788Z,34.53
2019-06-20T10:27:51.420Z,34.37
2019-06-20T10:30:55.502Z,32.77
2019-06-20T10:33:59.213Z,32.27
2019-06-20T10:37:03.281Z,36.83
2019-06-20T10:40:08.734Z,33.40
2019-06-20T10:43:12.430Z,27.07
2019-06-20T10:46:16.137Z,24.37
2019-06-20T10:49:19.847Z,22.97
2019-06-20T10:52:23.546Z,21.07
2019-06-20T10:55:27.521Z,20.73
2019-06-20T10:58:31.546Z,21.63
2019-06-20T11:01:35.611Z,18.40
2019-06-20T11:04:40.696Z,20.17
2019-06-20T11:07:45.598Z,16.83
2019-06-20T11:10:49.442Z,22.13
2019-06-20T11:13:53.689Z,21.20
2019-06-20T11:16:58.759Z,19.37
2019-06-20T11:20:03.095Z,16.27
2019-06-20T11:23:06.922Z,20.17
2019-06-20T11:26:10.676Z,17.47
2019-06-20T11:29:14.416Z,19.10
2019-06-20T11:32:18.373Z,16.23
2019-06-20T11:35:22.341Z,16.07
2019-06-20T11:38:26.376Z,14.37
2019-06-20T11:41:30.194Z,16.03
2019-06-20T11:44:35.321Z,11.37
2019-06-20T11:47:40.412Z,12.83
2019-06-20T11:50:44.900Z,12.03
2019-06-20T11:53:48.856Z,11.50
2019-06-20T11:56:52.569Z,12.03
2019-06-20T11:59:56.648Z,10.03
2019-06-20T12:03:00.400Z,10.73
2019-06-20T12:06:04.387Z,9.90
2019-06-20T12:09:08.402Z,9.27
2019-06-20T12:12:12.749Z,7.57
2019-06-20T12:15:17.417Z,10.53
2019-06-20T12:18:21.558Z,9.20
2019-06-20T12:21:25.758Z,8.87
2019-06-20T12:24:29.777Z,10.73
2019-06-20T12:27:34.296Z,7.37
2019-06-20T12:30:38.408Z,9.00
2019-06-20T12:33:45.046Z,9.93
2019-06-20T12:36:48.840Z,9.13
2019-06-20T12:39:52.561Z,9.77
2019-06-20T12:42:56.237Z,9.37
2019-06-20T12:46:00.308Z,9.67
2019-06-20T12:49:04.442Z,10.90
2019-06-20T12:52:08.471Z,9.13
2019-06-20T12:55:12.993Z,9.77
2019-06-20T12:58:16.750Z,12.47
2019-06-20T13:01:34.854Z,10.57
2019-06-20T13:04:25.987Z,9.67
2019-06-20T13:07:29.696Z,8.17
2019-06-20T13:10:33.698Z,11.80
2019-06-20T13:13:38.827Z,10.63
2019-06-20T13:16:42.976Z,9.10
2019-06-20T13:19:46.672Z,12.37
2019-06-20T13:22:50.390Z,10.60
2019-06-20T13:25:54.584Z,7.87
2019-06-20T13:29:04.019Z,8.97
2019-06-20T13:32:04.653Z,8.03
2019-06-20T13:35:09.200Z,7.37
2019-06-20T13:38:13.275Z,8.10
2019-06-20T13:41:17.043Z,8.43
2019-06-20T13:44:21.808Z,4.93
2019-06-20T13:47:25.640Z,6.40
2019-06-20T13:50:29.391Z,6.70
2019-06-20T13:53:33.101Z,5.87
2019-06-20T13:56:36.807Z,6.40
2019-06-20T13:59:41.659Z,5.92
2019-06-20T14:02:47.039Z,5.83
2019-06-20T14:05:51.673Z,5.93
2019-06-20T14:08:55.430Z,5.67
2019-06-20T14:11:59.109Z,8.13
2019-06-20T14:15:02.809Z,5.97
2019-06-20T14:18:06.575Z,5.83
2019-06-20T14:21:10.283Z,5.40
2019-06-20T14:24:14.040Z,5.47
2019-06-20T14:27:17.734Z,10.33
2019-06-20T14:30:22.186Z,9.00
2019-06-20T14:33:25.877Z,7.80
2019-06-20T14:36:30.182Z,8.55
2019-06-20T14:39:34.355Z,9.77
2019-06-20T14:42:38.486Z,5.67
2019-06-20T14:45:43.828Z,6.63
2019-06-20T14:48:48.490Z,6.67
2019-06-20T14:51:52.487Z,6.90
2019-06-20T14:54:56.596Z,7.93
2019-06-20T14:58:00.406Z,7.30
2019-06-20T15:01:04.233Z,6.83
2019-06-20T15:04:07.934Z,9.77
2019-06-20T15:07:11.698Z,6.70
2019-06-20T15:10:16.076Z,7.57
2019-06-20T15:13:19.805Z,7.67
2019-06-20T15:16:23.585Z,6.67
2019-06-20T15:19:27.285Z,9.93
2019-06-20T15:22:32.103Z,9.10
2019-06-20T15:25:36.253Z,12.27
2019-06-20T15:28:39.942Z,10.07
2019-06-20T15:31:43.936Z,9.93
2019-06-20T15:34:49.341Z,9.23
2019-06-20T15:37:53.929Z,10.20
2019-06-20T15:40:58.998Z,10.97
2019-06-20T15:44:02.998Z,10.47
2019-06-20T15:47:07.018Z,12.77
2019-06-20T15:50:10.953Z,9.93
2019-06-20T15:53:14.824Z,10.57
2019-06-20T15:56:18.553Z,8.67
2019-06-20T15:59:22.625Z,10.23
2019-06-20T16:02:26.373Z,9.50
2019-06-20T16:05:30.112Z,12.50
2019-06-20T16:08:33.850Z,13.23
2019-06-20T16:11:37.557Z,13.47
2019-06-20T16:14:41.295Z,12.53
2019-06-20T16:17:44.999Z,16.77
2019-06-20T16:20:48.979Z,18.50
2019-06-20T16:23:52.695Z,12.23
2019-06-20T16:26:56.429Z,15.70
2019-06-20T16:30:00.126Z,20.17
2019-06-20T16:33:04.039Z,18.73
2019-06-20T16:36:07.756Z,17.77
2019-06-20T16:39:11.449Z,16.30
2019-06-20T16:42:15.183Z,14.10
2019-06-20T16:45:19.155Z,14.70
2019-06-20T16:48:22.877Z,14.77
2019-06-20T16:51:26.579Z,12.67
2019-06-20T16:54:30.675Z,10.80
2019-06-20T16:57:34.396Z,13.10
2019-06-20T17:00:38.548Z,11.47
2019-06-20T17:03:42.317Z,12.37
2019-06-20T17:06:46.333Z,14.30
2019-06-20T17:09:50.027Z,13.67
2019-06-20T17:12:54.005Z,11.37
2019-06-20T17:15:57.946Z,11.20
2019-06-20T17:19:01.642Z,10.77
2019-06-20T17:22:06.084Z,10.43
2019-06-20T17:25:10.232Z,11.70
2019-06-20T17:28:13.933Z,12.00
2019-06-20T17:31:17.872Z,8.63
2019-06-20T17:34:21.568Z,8.53
2019-06-20T17:37:25.267Z,10.57
2019-06-20T17:40:29.204Z,5.93
2019-06-20T17:43:32.898Z,9.20
2019-06-20T17:46:36.959Z,5.90
2019-06-20T17:49:40.885Z,6.97
2019-06-20T17:52:44.696Z,7.03
2019-06-20T17:55:48.704Z,6.00
2019-06-20T17:58:52.410Z,7.00
2019-06-20T18:01:56.117Z,7.10
2019-06-20T18:05:00.105Z,7.10
2019-06-20T18:08:14.822Z,7.07
2019-06-20T18:11:09.900Z,8.27
2019-06-20T18:14:14.299Z,9.20
2019-06-20T18:17:18.360Z,8.93
2019-06-20T18:20:24.510Z,9.80
2019-06-20T18:23:28.511Z,7.77
2019-06-20T18:26:32.211Z,7.33
2019-06-20T18:29:36.024Z,9.30
2019-06-20T18:32:40.048Z,8.73
2019-06-20T18:35:43.878Z,8.73
2019-06-20T18:38:47.871Z,6.60
2019-06-20T18:41:51.590Z,8.33
2019-06-20T18:44:55.291Z,12.57
2019-06-20T18:47:59.018Z,11.50
2019-06-20T18:51:02.710Z,6.77
2019-06-20T18:54:06.412Z,8.23
2019-06-20T18:57:10.117Z,12.30
2019-06-20T19:00:14.388Z,9.13
2019-06-20T19:03:21.331Z,8.83
2019-06-20T19:06:35.508Z,11.13
2019-06-20T19:09:29.732Z,11.17
2019-06-20T19:12:33.732Z,9.13
2019-06-20T19:15:37.407Z,12.97
2019-06-20T19:18:41.273Z,10.63
2019-06-20T19:21:44.978Z,10.13
2019-06-20T19:24:48.669Z,11.03
2019-06-20T19:27:52.618Z,11.20
2019-06-20T19:30:56.388Z,8.87
2019-06-20T19:34:00.095Z,9.53
2019-06-20T19:37:03.799Z,8.37
2019-06-20T19:40:08.288Z,10.33
2019-06-20T19:43:12.084Z,10.33
2019-06-20T19:46:15.843Z,14.07
2019-06-20T19:49:19.556Z,13.33
2019-06-20T19:52:23.566Z,9.07
2019-06-20T19:55:27.625Z,11.10
2019-06-20T19:58:31.494Z,9.63
2019-06-20T20:01:35.626Z,10.13
2019-06-20T20:04:39.860Z,10.20
2019-06-20T20:07:44.176Z,10.60
2019-06-20T20:10:48.641Z,9.47
2019-06-20T20:13:52.334Z,9.47
2019-06-20T20:16:56.066Z,13.13
2019-06-20T20:19:59.775Z,11.20
2019-06-20T20:23:03.539Z,10.00
2019-06-20T20:26:08.805Z,12.03
2019-06-20T20:29:12.671Z,9.97
2019-06-20T20:32:16.890Z,10.50
2019-06-20T20:35:34.493Z,11.20
2019-06-20T20:38:26.490Z,10.37
2019-06-20T20:41:30.567Z,8.17
2019-06-20T20:44:34.278Z,11.40
2019-06-20T20:47:38.065Z,9.23
2019-06-20T20:50:42.392Z,11.10
2019-06-20T20:53:46.174Z,11.77
2019-06-20T20:56:50.143Z,10.57
2019-06-20T20:59:53.873Z,8.40
2019-06-20T21:02:57.669Z,9.70
2019-06-20T21:06:01.659Z,13.83
2019-06-20T21:09:07.756Z,17.20
2019-06-20T21:12:11.727Z,17.80
2019-06-20T21:15:16.055Z,16.33
2019-06-20T21:18:19.987Z,18.30
2019-06-20T21:21:24.273Z,23.37
2019-06-20T21:24:28.007Z,21.70
2019-06-20T21:27:32.226Z,27.27
2019-06-20T21:30:35.936Z,26.50
2019-06-20T21:33:39.630Z,33.73
2019-06-20T21:36:43.604Z,30.83
2019-06-20T21:39:47.371Z,29.83
2019-06-20T21:42:51.093Z,31.70
2019-06-20T21:45:54.795Z,34.33
2019-06-20T21:48:58.491Z,31.27
2019-06-20T21:52:02.190Z,31.40
2019-06-20T21:55:06.270Z,44.70
2019-06-20T21:58:10.039Z,34.00
2019-06-20T22:01:14.615Z,34.87
2019-06-20T22:04:18.324Z,41.47
2019-06-20T22:07:22.046Z,28.83
2019-06-20T22:10:25.818Z,28.37
2019-06-20T22:13:29.526Z,30.80
2019-06-20T22:16:33.243Z,33.87
2019-06-20T22:19:36.930Z,31.43
2019-06-20T22:22:41.738Z,29.83
2019-06-20T22:25:45.574Z,30.60
2019-06-20T22:28:49.622Z,30.47
2019-06-20T22:31:53.339Z,28.40
2019-06-20T22:34:57.372Z,32.83
2019-06-20T22:38:01.159Z,29.97
2019-06-20T22:41:04.943Z,25.00
2019-06-20T22:44:08.650Z,26.33
2019-06-20T22:47:12.374Z,31.70
2019-06-20T22:50:16.798Z,24.83
2019-06-20T22:53:20.507Z,27.93
2019-06-20T22:56:24.519Z,28.83
2019-06-20T22:59:28.551Z,28.73
2019-06-20T23:02:32.547Z,28.73
2019-06-20T23:05:36.359Z,24.67
2019-06-20T23:08:40.315Z,21.97
2019-06-20T23:11:44.108Z,31.40
2019-06-20T23:14:48.610Z,21.30
2019-06-20T23:17:52.322Z,17.13
2019-06-20T23:21:04.611Z,22.90
2019-06-20T23:24:02.078Z,23.70
2019-06-20T23:27:06.071Z,31.80
2019-06-20T23:30:11.819Z,24.07
2019-06-20T23:33:15.514Z,30.03
2019-06-20T23:36:19.206Z,19.07
2019-06-20T23:39:22.937Z,25.33
2019-06-20T23:42:26.959Z,23.00
2019-06-20T23:45:30.666Z,28.90
2019-06-20T23:48:34.377Z,23.20
2019-06-20T23:51:42.349Z,24.70
2019-06-20T23:54:46.422Z,25.80
2019-06-20T23:57:50.424Z,16.90
